Aeroporto :
LOGIN :

Iscrizione | Disclaimer

   EN    FR    IT 

 










Sommario :    VFR   VFR Marginale   IFR   IFR Intensivo   IFR Molto Intensivo
Visibilità : 
Base nubi : 
>= 8 km
>= 3000ft
5 / 8 km
1000 / 3000 ft
1500m / 5 km
500 / 1000 ft
800 / 1500m
200 / 500 ft
< 800m
< 200 ft
Simboli :   Temporali  Nebbia  Neve Forte  Precipitazioni Forti  Vento > 20 kt
SIGMETs :   Varie  Temporali  Ghiacco  Turbolenza  Onda orograficha  Ceneri Vulcaniche






- Altitudine del aeroporto : 132 ft


EGXE - RAF Leeming

ULTIMO METAR :
  • 211550Z AUTO 21020G32KT 9999 -RA FEW035/// BKN050/// 10/07 Q1008

METARs OBSOLETI :
  • 211450Z AUTO 20018G33KT 9999 -RA SCT023/// SCT032/// 11/07 Q1008
  • 211350Z AUTO 19016G30KT 9999 BKN022/// 11/06 Q1009 REDZ

TAF TAF EGXE
Valido dal 21 a 12 ore il 21 a 18 ore UTC


211050Z 2112/2118 23022G35KT 9999 SCT030
PROB40
TEMPO 2112/2117 24032G48KT
TEMPO 2116/2118 7000 -RA BKN022



MetMap, La meteo Aeronautica in un colpo d'occhio ! - Copyright ORBIFLY Dicembre 2007 - Disclaimer

ORBIFLY MET'MAP TEAM :

Programmazione e sviluppo : Alexandra Zaïnal
Concezione : Baudouin d'Aumeries
Aiuto per la programmazione : Marc-Olivier Méhu
Supporto tecnico e logistico : Manuel Goepfert
Aiuto per la traduzione : Arnaldo La Scala

Contatto : metmap@orbifly.com




FONTI E CREDITI :

   NOAA